sensor_id;sensor_type;location;lat;lon;timestamp;P1;durP1;ratioP1;P2;durP2;ratioP2
46897;SDS011;32646;50.958;6.258;2023-01-19T00:00:30;8.15;;;4.18;;
46897;SDS011;32646;50.958;6.258;2023-01-19T00:02:57;9.02;;;4.03;;
46897;SDS011;32646;50.958;6.258;2023-01-19T00:05:23;8.10;;;4.10;;
46897;SDS011;32646;50.958;6.258;2023-01-19T00:07:50;4.78;;;3.30;;
46897;SDS011;32646;50.958;6.258;2023-01-19T00:10:16;9.05;;;4.63;;
46897;SDS011;32646;50.958;6.258;2023-01-19T00:12:43;8.32;;;4.85;;
46897;SDS011;32646;50.958;6.258;2023-01-19T00:15:10;8.43;;;4.78;;
46897;SDS011;32646;50.958;6.258;2023-01-19T00:17:37;7.57;;;5.10;;
46897;SDS011;32646;50.958;6.258;2023-01-19T00:20:03;10.98;;;4.57;;
46897;SDS011;32646;50.958;6.258;2023-01-19T00:22:30;5.88;;;4.35;;
46897;SDS011;32646;50.958;6.258;2023-01-19T00:24:57;6.95;;;4.32;;
46897;SDS011;32646;50.958;6.258;2023-01-19T00:27:23;11.15;;;5.53;;
46897;SDS011;32646;50.958;6.258;2023-01-19T00:29:50;7.88;;;4.45;;
46897;SDS011;32646;50.958;6.258;2023-01-19T00:32:16;8.88;;;4.88;;
46897;SDS011;32646;50.958;6.258;2023-01-19T00:34:43;11.23;;;5.57;;
46897;SDS011;32646;50.958;6.258;2023-01-19T00:37:10;10.90;;;4.32;;
46897;SDS011;32646;50.958;6.258;2023-01-19T00:39:36;10.43;;;5.03;;
46897;SDS011;32646;50.958;6.258;2023-01-19T00:42:03;9.80;;;5.65;;
46897;SDS011;32646;50.958;6.258;2023-01-19T00:44:29;12.38;;;5.50;;
46897;SDS011;32646;50.958;6.258;2023-01-19T00:46:56;11.05;;;5.00;;
46897;SDS011;32646;50.958;6.258;2023-01-19T00:49:22;7.60;;;4.45;;
46897;SDS011;32646;50.958;6.258;2023-01-19T00:51:49;7.72;;;4.90;;
46897;SDS011;32646;50.958;6.258;2023-01-19T00:54:15;7.53;;;4.38;;
46897;SDS011;32646;50.958;6.258;2023-01-19T00:56:42;10.20;;;4.65;;
46897;SDS011;32646;50.958;6.258;2023-01-19T00:59:09;16.50;;;6.15;;
46897;SDS011;32646;50.958;6.258;2023-01-19T01:01:35;11.00;;;5.65;;
46897;SDS011;32646;50.958;6.258;2023-01-19T01:04:11;10.00;;;5.30;;
46897;SDS011;32646;50.958;6.258;2023-01-19T01:06:38;9.80;;;3.97;;
46897;SDS011;32646;50.958;6.258;2023-01-19T01:09:04;9.70;;;5.35;;
46897;SDS011;32646;50.958;6.258;2023-01-19T01:11:31;9.40;;;5.25;;
46897;SDS011;32646;50.958;6.258;2023-01-19T01:13:57;9.57;;;4.90;;
46897;SDS011;32646;50.958;6.258;2023-01-19T01:16:24;6.05;;;3.55;;
46897;SDS011;32646;50.958;6.258;2023-01-19T01:18:51;8.25;;;4.45;;
46897;SDS011;32646;50.958;6.258;2023-01-19T01:21:18;9.88;;;4.95;;
46897;SDS011;32646;50.958;6.258;2023-01-19T01:23:44;9.60;;;4.30;;
46897;SDS011;32646;50.958;6.258;2023-01-19T01:26:10;11.73;;;4.97;;
46897;SDS011;32646;50.958;6.258;2023-01-19T01:28:37;7.35;;;4.55;;
46897;SDS011;32646;50.958;6.258;2023-01-19T01:31:04;9.60;;;4.55;;
46897;SDS011;32646;50.958;6.258;2023-01-19T01:33:30;5.03;;;2.92;;
46897;SDS011;32646;50.958;6.258;2023-01-19T01:36:07;6.72;;;3.30;;
46897;SDS011;32646;50.958;6.258;2023-01-19T01:38:34;5.78;;;3.20;;
46897;SDS011;32646;50.958;6.258;2023-01-19T01:41:01;7.45;;;4.05;;
46897;SDS011;32646;50.958;6.258;2023-01-19T01:43:41;6.35;;;3.65;;
46897;SDS011;32646;50.958;6.258;2023-01-19T01:46:08;9.68;;;4.63;;
46897;SDS011;32646;50.958;6.258;2023-01-19T01:48:34;9.25;;;4.97;;
46897;SDS011;32646;50.958;6.258;2023-01-19T01:51:06;8.15;;;3.88;;
46897;SDS011;32646;50.958;6.258;2023-01-19T01:56:10;7.30;;;3.80;;
46897;SDS011;32646;50.958;6.258;2023-01-19T01:58:41;8.98;;;3.90;;
46897;SDS011;32646;50.958;6.258;2023-01-19T02:01:08;7.97;;;3.50;;
46897;SDS011;32646;50.958;6.258;2023-01-19T02:03:35;4.18;;;2.70;;
46897;SDS011;32646;50.958;6.258;2023-01-19T02:06:02;12.75;;;4.13;;
46897;SDS011;32646;50.958;6.258;2023-01-19T02:08:32;10.82;;;5.65;;
46897;SDS011;32646;50.958;6.258;2023-01-19T02:11:03;9.70;;;4.10;;
46897;SDS011;32646;50.958;6.258;2023-01-19T02:13:32;9.18;;;3.63;;
46897;SDS011;32646;50.958;6.258;2023-01-19T02:16:01;7.85;;;3.45;;
46897;SDS011;32646;50.958;6.258;2023-01-19T02:18:32;9.00;;;3.97;;
46897;SDS011;32646;50.958;6.258;2023-01-19T02:23:58;6.45;;;3.13;;
46897;SDS011;32646;50.958;6.258;2023-01-19T02:26:27;5.45;;;3.08;;
46897;SDS011;32646;50.958;6.258;2023-01-19T02:29:09;6.18;;;3.80;;
46897;SDS011;32646;50.958;6.258;2023-01-19T02:31:38;8.10;;;4.40;;
46897;SDS011;32646;50.958;6.258;2023-01-19T02:34:07;8.27;;;3.83;;
46897;SDS011;32646;50.958;6.258;2023-01-19T02:36:44;7.88;;;4.68;;
46897;SDS011;32646;50.958;6.258;2023-01-19T02:39:16;6.00;;;3.47;;
46897;SDS011;32646;50.958;6.258;2023-01-19T02:41:50;7.18;;;4.03;;
46897;SDS011;32646;50.958;6.258;2023-01-19T02:44:20;9.93;;;3.83;;
46897;SDS011;32646;50.958;6.258;2023-01-19T02:46:48;6.82;;;3.25;;
46897;SDS011;32646;50.958;6.258;2023-01-19T02:49:14;7.07;;;4.43;;
46897;SDS011;32646;50.958;6.258;2023-01-19T02:51:42;7.43;;;3.85;;
46897;SDS011;32646;50.958;6.258;2023-01-19T02:54:16;7.10;;;4.38;;
46897;SDS011;32646;50.958;6.258;2023-01-19T03:02:15;7.07;;;3.97;;
46897;SDS011;32646;50.958;6.258;2023-01-19T03:10:27;8.40;;;4.53;;
46897;SDS011;32646;50.958;6.258;2023-01-19T03:13:05;5.13;;;2.30;;
46897;SDS011;32646;50.958;6.258;2023-01-19T03:15:58;9.88;;;4.15;;
46897;SDS011;32646;50.958;6.258;2023-01-19T03:18:52;8.40;;;3.97;;
46897;SDS011;32646;50.958;6.258;2023-01-19T03:21:22;5.90;;;3.17;;
46897;SDS011;32646;50.958;6.258;2023-01-19T03:23:51;7.13;;;3.60;;
46897;SDS011;32646;50.958;6.258;2023-01-19T03:28:51;7.53;;;3.10;;
46897;SDS011;32646;50.958;6.258;2023-01-19T03:31:22;5.00;;;2.95;;
46897;SDS011;32646;50.958;6.258;2023-01-19T03:33:54;7.68;;;3.95;;
46897;SDS011;32646;50.958;6.258;2023-01-19T03:36:24;10.02;;;4.07;;
46897;SDS011;32646;50.958;6.258;2023-01-19T03:38:57;7.32;;;3.78;;
46897;SDS011;32646;50.958;6.258;2023-01-19T03:41:26;6.65;;;3.15;;
46897;SDS011;32646;50.958;6.258;2023-01-19T03:43:54;7.85;;;4.47;;
46897;SDS011;32646;50.958;6.258;2023-01-19T03:46:22;7.85;;;4.28;;
46897;SDS011;32646;50.958;6.258;2023-01-19T03:48:51;8.65;;;3.08;;
46897;SDS011;32646;50.958;6.258;2023-01-19T03:51:18;6.65;;;3.55;;
46897;SDS011;32646;50.958;6.258;2023-01-19T03:53:46;9.15;;;4.28;;
46897;SDS011;32646;50.958;6.258;2023-01-19T03:56:23;5.00;;;2.28;;
46897;SDS011;32646;50.958;6.258;2023-01-19T03:58:50;8.80;;;4.22;;
46897;SDS011;32646;50.958;6.258;2023-01-19T04:01:17;7.57;;;3.60;;
46897;SDS011;32646;50.958;6.258;2023-01-19T04:03:44;10.55;;;4.93;;
46897;SDS011;32646;50.958;6.258;2023-01-19T04:06:11;7.93;;;3.97;;
46897;SDS011;32646;50.958;6.258;2023-01-19T04:08:38;10.77;;;4.18;;
46897;SDS011;32646;50.958;6.258;2023-01-19T04:11:05;12.25;;;4.07;;
46897;SDS011;32646;50.958;6.258;2023-01-19T04:13:32;7.68;;;4.10;;
46897;SDS011;32646;50.958;6.258;2023-01-19T04:16:02;9.27;;;4.95;;
46897;SDS011;32646;50.958;6.258;2023-01-19T04:18:30;10.95;;;4.10;;
46897;SDS011;32646;50.958;6.258;2023-01-19T04:21:03;9.18;;;4.45;;
46897;SDS011;32646;50.958;6.258;2023-01-19T04:23:31;9.82;;;4.03;;
46897;SDS011;32646;50.958;6.258;2023-01-19T04:25:59;10.50;;;4.43;;
46897;SDS011;32646;50.958;6.258;2023-01-19T04:28:27;6.25;;;2.92;;
46897;SDS011;32646;50.958;6.258;2023-01-19T04:30:54;9.88;;;4.47;;
46897;SDS011;32646;50.958;6.258;2023-01-19T04:33:21;10.43;;;5.07;;
46897;SDS011;32646;50.958;6.258;2023-01-19T04:35:49;9.10;;;4.18;;
46897;SDS011;32646;50.958;6.258;2023-01-19T04:38:19;9.52;;;3.40;;
46897;SDS011;32646;50.958;6.258;2023-01-19T04:40:47;10.25;;;4.43;;
46897;SDS011;32646;50.958;6.258;2023-01-19T04:43:14;6.00;;;3.60;;
46897;SDS011;32646;50.958;6.258;2023-01-19T04:45:40;9.98;;;4.32;;
46897;SDS011;32646;50.958;6.258;2023-01-19T04:48:07;8.88;;;4.03;;
46897;SDS011;32646;50.958;6.258;2023-01-19T04:50:33;8.52;;;4.18;;
46897;SDS011;32646;50.958;6.258;2023-01-19T04:53:00;8.90;;;4.85;;
46897;SDS011;32646;50.958;6.258;2023-01-19T04:55:27;13.23;;;4.97;;
46897;SDS011;32646;50.958;6.258;2023-01-19T04:57:54;7.05;;;4.07;;
46897;SDS011;32646;50.958;6.258;2023-01-19T05:00:20;11.80;;;4.05;;
46897;SDS011;32646;50.958;6.258;2023-01-19T05:02:47;10.63;;;4.85;;
46897;SDS011;32646;50.958;6.258;2023-01-19T05:05:14;9.18;;;3.78;;
46897;SDS011;32646;50.958;6.258;2023-01-19T05:07:41;8.35;;;4.38;;
46897;SDS011;32646;50.958;6.258;2023-01-19T05:10:08;8.07;;;4.07;;
46897;SDS011;32646;50.958;6.258;2023-01-19T05:12:35;9.23;;;4.53;;
46897;SDS011;32646;50.958;6.258;2023-01-19T05:15:02;13.15;;;6.15;;
46897;SDS011;32646;50.958;6.258;2023-01-19T05:17:29;9.68;;;4.82;;
46897;SDS011;32646;50.958;6.258;2023-01-19T05:19:55;12.23;;;5.47;;
46897;SDS011;32646;50.958;6.258;2023-01-19T05:22:22;7.70;;;4.00;;
46897;SDS011;32646;50.958;6.258;2023-01-19T05:24:49;12.35;;;5.43;;
46897;SDS011;32646;50.958;6.258;2023-01-19T05:27:15;10.50;;;4.35;;
46897;SDS011;32646;50.958;6.258;2023-01-19T05:29:42;12.07;;;6.07;;
46897;SDS011;32646;50.958;6.258;2023-01-19T05:32:08;19.83;;;6.25;;
46897;SDS011;32646;50.958;6.258;2023-01-19T05:34:35;16.20;;;6.47;;
46897;SDS011;32646;50.958;6.258;2023-01-19T05:37:01;9.65;;;5.80;;
46897;SDS011;32646;50.958;6.258;2023-01-19T05:39:28;14.45;;;6.57;;
46897;SDS011;32646;50.958;6.258;2023-01-19T05:41:55;12.88;;;5.35;;
46897;SDS011;32646;50.958;6.258;2023-01-19T05:44:21;12.90;;;6.28;;
46897;SDS011;32646;50.958;6.258;2023-01-19T05:46:48;15.20;;;6.28;;
46897;SDS011;32646;50.958;6.258;2023-01-19T05:49:14;16.67;;;7.60;;
46897;SDS011;32646;50.958;6.258;2023-01-19T05:51:41;13.60;;;6.32;;
46897;SDS011;32646;50.958;6.258;2023-01-19T05:54:07;13.57;;;6.70;;
46897;SDS011;32646;50.958;6.258;2023-01-19T05:56:34;14.60;;;6.80;;
46897;SDS011;32646;50.958;6.258;2023-01-19T05:59:01;19.10;;;7.85;;
46897;SDS011;32646;50.958;6.258;2023-01-19T06:01:27;11.68;;;4.70;;
46897;SDS011;32646;50.958;6.258;2023-01-19T06:03:54;16.08;;;7.63;;
46897;SDS011;32646;50.958;6.258;2023-01-19T06:06:20;16.30;;;7.28;;
46897;SDS011;32646;50.958;6.258;2023-01-19T06:08:47;17.42;;;6.82;;
46897;SDS011;32646;50.958;6.258;2023-01-19T06:11:13;17.55;;;8.02;;
46897;SDS011;32646;50.958;6.258;2023-01-19T06:13:40;19.02;;;8.23;;
46897;SDS011;32646;50.958;6.258;2023-01-19T06:16:07;18.63;;;7.65;;
46897;SDS011;32646;50.958;6.258;2023-01-19T06:18:34;17.83;;;8.40;;
46897;SDS011;32646;50.958;6.258;2023-01-19T06:21:02;16.63;;;7.82;;
46897;SDS011;32646;50.958;6.258;2023-01-19T06:23:30;17.98;;;7.13;;
46897;SDS011;32646;50.958;6.258;2023-01-19T06:25:58;13.80;;;6.93;;
46897;SDS011;32646;50.958;6.258;2023-01-19T06:28:24;15.82;;;6.72;;
46897;SDS011;32646;50.958;6.258;2023-01-19T06:30:52;16.08;;;8.60;;
46897;SDS011;32646;50.958;6.258;2023-01-19T06:33:19;17.05;;;8.98;;
46897;SDS011;32646;50.958;6.258;2023-01-19T06:35:47;19.33;;;7.72;;
46897;SDS011;32646;50.958;6.258;2023-01-19T06:38:14;17.92;;;8.02;;
46897;SDS011;32646;50.958;6.258;2023-01-19T06:40:42;18.10;;;7.10;;
46897;SDS011;32646;50.958;6.258;2023-01-19T06:43:09;17.75;;;7.85;;
46897;SDS011;32646;50.958;6.258;2023-01-19T06:45:36;16.08;;;7.57;;
46897;SDS011;32646;50.958;6.258;2023-01-19T06:48:02;17.63;;;7.47;;
46897;SDS011;32646;50.958;6.258;2023-01-19T06:50:29;18.80;;;8.25;;
46897;SDS011;32646;50.958;6.258;2023-01-19T06:52:55;19.00;;;9.32;;
46897;SDS011;32646;50.958;6.258;2023-01-19T06:55:22;15.00;;;6.85;;
46897;SDS011;32646;50.958;6.258;2023-01-19T06:57:58;16.45;;;7.75;;
46897;SDS011;32646;50.958;6.258;2023-01-19T07:00:25;17.77;;;7.68;;
46897;SDS011;32646;50.958;6.258;2023-01-19T07:02:52;18.65;;;8.07;;
46897;SDS011;32646;50.958;6.258;2023-01-19T07:05:18;16.02;;;8.02;;
46897;SDS011;32646;50.958;6.258;2023-01-19T07:07:49;18.17;;;7.93;;
46897;SDS011;32646;50.958;6.258;2023-01-19T07:10:17;14.40;;;6.28;;
46897;SDS011;32646;50.958;6.258;2023-01-19T07:12:44;15.85;;;7.30;;
46897;SDS011;32646;50.958;6.258;2023-01-19T07:15:10;17.45;;;8.30;;
46897;SDS011;32646;50.958;6.258;2023-01-19T07:17:37;15.95;;;7.63;;
46897;SDS011;32646;50.958;6.258;2023-01-19T07:20:03;16.15;;;7.78;;
46897;SDS011;32646;50.958;6.258;2023-01-19T07:22:31;18.13;;;8.73;;
46897;SDS011;32646;50.958;6.258;2023-01-19T07:24:57;22.65;;;9.82;;
46897;SDS011;32646;50.958;6.258;2023-01-19T07:27:24;18.08;;;7.43;;
46897;SDS011;32646;50.958;6.258;2023-01-19T07:29:51;13.52;;;5.95;;
46897;SDS011;32646;50.958;6.258;2023-01-19T07:32:17;16.40;;;6.95;;
46897;SDS011;32646;50.958;6.258;2023-01-19T07:34:44;10.68;;;5.43;;
46897;SDS011;32646;50.958;6.258;2023-01-19T07:37:10;16.90;;;8.70;;
46897;SDS011;32646;50.958;6.258;2023-01-19T07:39:37;21.17;;;8.80;;
46897;SDS011;32646;50.958;6.258;2023-01-19T07:42:03;22.75;;;9.23;;
46897;SDS011;32646;50.958;6.258;2023-01-19T07:44:30;11.13;;;6.20;;
46897;SDS011;32646;50.958;6.258;2023-01-19T07:46:56;18.13;;;8.27;;
46897;SDS011;32646;50.958;6.258;2023-01-19T07:49:23;16.05;;;7.32;;
46897;SDS011;32646;50.958;6.258;2023-01-19T07:51:49;22.58;;;9.60;;
46897;SDS011;32646;50.958;6.258;2023-01-19T07:54:16;14.60;;;6.75;;
46897;SDS011;32646;50.958;6.258;2023-01-19T07:56:42;24.05;;;9.68;;
46897;SDS011;32646;50.958;6.258;2023-01-19T07:59:09;20.73;;;10.93;;
46897;SDS011;32646;50.958;6.258;2023-01-19T08:01:36;16.75;;;8.57;;
46897;SDS011;32646;50.958;6.258;2023-01-19T08:04:02;15.52;;;7.32;;
46897;SDS011;32646;50.958;6.258;2023-01-19T08:06:31;18.20;;;9.20;;
46897;SDS011;32646;50.958;6.258;2023-01-19T08:11:26;20.88;;;7.97;;
46897;SDS011;32646;50.958;6.258;2023-01-19T08:13:52;28.23;;;10.38;;
46897;SDS011;32646;50.958;6.258;2023-01-19T08:16:19;20.55;;;7.68;;
46897;SDS011;32646;50.958;6.258;2023-01-19T08:18:45;14.95;;;7.93;;
46897;SDS011;32646;50.958;6.258;2023-01-19T08:21:12;19.33;;;8.32;;
46897;SDS011;32646;50.958;6.258;2023-01-19T08:23:39;22.67;;;9.23;;
46897;SDS011;32646;50.958;6.258;2023-01-19T08:26:18;32.53;;;12.15;;
46897;SDS011;32646;50.958;6.258;2023-01-19T08:28:47;18.35;;;8.73;;
46897;SDS011;32646;50.958;6.258;2023-01-19T08:31:13;25.45;;;9.98;;
46897;SDS011;32646;50.958;6.258;2023-01-19T08:33:47;20.38;;;8.95;;
46897;SDS011;32646;50.958;6.258;2023-01-19T08:36:15;32.78;;;11.27;;
46897;SDS011;32646;50.958;6.258;2023-01-19T08:38:43;30.42;;;12.68;;
46897;SDS011;32646;50.958;6.258;2023-01-19T08:41:10;27.52;;;11.98;;
46897;SDS011;32646;50.958;6.258;2023-01-19T08:43:37;24.80;;;9.38;;
46897;SDS011;32646;50.958;6.258;2023-01-19T08:46:04;21.73;;;10.00;;
46897;SDS011;32646;50.958;6.258;2023-01-19T08:48:31;18.92;;;9.30;;
46897;SDS011;32646;50.958;6.258;2023-01-19T08:50:58;24.10;;;10.70;;
46897;SDS011;32646;50.958;6.258;2023-01-19T08:53:25;27.20;;;11.07;;
46897;SDS011;32646;50.958;6.258;2023-01-19T08:55:55;29.15;;;11.02;;
46897;SDS011;32646;50.958;6.258;2023-01-19T08:58:22;24.88;;;10.63;;
46897;SDS011;32646;50.958;6.258;2023-01-19T09:00:49;19.95;;;10.05;;
46897;SDS011;32646;50.958;6.258;2023-01-19T09:03:15;30.00;;;11.07;;
46897;SDS011;32646;50.958;6.258;2023-01-19T09:05:42;26.88;;;9.82;;
46897;SDS011;32646;50.958;6.258;2023-01-19T09:08:10;32.85;;;11.57;;
46897;SDS011;32646;50.958;6.258;2023-01-19T09:10:38;28.52;;;9.98;;
46897;SDS011;32646;50.958;6.258;2023-01-19T09:13:10;31.10;;;10.63;;
46897;SDS011;32646;50.958;6.258;2023-01-19T09:15:37;17.88;;;8.55;;
46897;SDS011;32646;50.958;6.258;2023-01-19T09:18:06;31.65;;;11.43;;
46897;SDS011;32646;50.958;6.258;2023-01-19T09:20:41;30.05;;;9.55;;
46897;SDS011;32646;50.958;6.258;2023-01-19T09:23:09;24.20;;;8.90;;
46897;SDS011;32646;50.958;6.258;2023-01-19T09:25:37;25.52;;;7.95;;
46897;SDS011;32646;50.958;6.258;2023-01-19T09:28:05;28.92;;;12.27;;
46897;SDS011;32646;50.958;6.258;2023-01-19T09:30:34;26.55;;;10.57;;
46897;SDS011;32646;50.958;6.258;2023-01-19T09:33:08;30.58;;;11.80;;
46897;SDS011;32646;50.958;6.258;2023-01-19T09:35:37;16.05;;;6.63;;
46897;SDS011;32646;50.958;6.258;2023-01-19T09:38:04;26.52;;;11.25;;
46897;SDS011;32646;50.958;6.258;2023-01-19T09:40:32;26.83;;;11.13;;
46897;SDS011;32646;50.958;6.258;2023-01-19T09:43:21;26.45;;;10.38;;
46897;SDS011;32646;50.958;6.258;2023-01-19T09:51:11;17.23;;;6.90;;
46897;SDS011;32646;50.958;6.258;2023-01-19T09:56:40;28.20;;;9.93;;
46897;SDS011;32646;50.958;6.258;2023-01-19T09:59:29;15.48;;;9.57;;
46897;SDS011;32646;50.958;6.258;2023-01-19T10:04:33;23.33;;;9.30;;
46897;SDS011;32646;50.958;6.258;2023-01-19T10:10:02;23.05;;;9.40;;
46897;SDS011;32646;50.958;6.258;2023-01-19T10:18:22;22.70;;;11.65;;
46897;SDS011;32646;50.958;6.258;2023-01-19T10:21:01;21.10;;;8.48;;
46897;SDS011;32646;50.958;6.258;2023-01-19T10:23:45;22.55;;;8.88;;
46897;SDS011;32646;50.958;6.258;2023-01-19T10:29:20;19.13;;;8.45;;
46897;SDS011;32646;50.958;6.258;2023-01-19T10:31:52;18.23;;;7.40;;
46897;SDS011;32646;50.958;6.258;2023-01-19T10:34:34;17.13;;;7.28;;
46897;SDS011;32646;50.958;6.258;2023-01-19T10:39:47;17.35;;;7.53;;
46897;SDS011;32646;50.958;6.258;2023-01-19T10:42:19;16.27;;;7.43;;
46897;SDS011;32646;50.958;6.258;2023-01-19T10:44:45;14.80;;;6.72;;
46897;SDS011;32646;50.958;6.258;2023-01-19T10:47:16;17.27;;;8.20;;
46897;SDS011;32646;50.958;6.258;2023-01-19T10:49:45;17.35;;;8.05;;
46897;SDS011;32646;50.958;6.258;2023-01-19T10:52:20;17.88;;;7.05;;
46897;SDS011;32646;50.958;6.258;2023-01-19T10:54:52;17.02;;;7.93;;
46897;SDS011;32646;50.958;6.258;2023-01-19T10:57:24;22.77;;;10.05;;
46897;SDS011;32646;50.958;6.258;2023-01-19T10:59:53;18.75;;;6.95;;
46897;SDS011;32646;50.958;6.258;2023-01-19T11:04:47;19.60;;;8.07;;
46897;SDS011;32646;50.958;6.258;2023-01-19T11:12:45;14.15;;;6.65;;
46897;SDS011;32646;50.958;6.258;2023-01-19T11:15:22;19.73;;;7.22;;
46897;SDS011;32646;50.958;6.258;2023-01-19T11:17:50;12.50;;;5.75;;
46897;SDS011;32646;50.958;6.258;2023-01-19T11:20:19;21.17;;;8.90;;
46897;SDS011;32646;50.958;6.258;2023-01-19T11:22:48;21.75;;;8.77;;
46897;SDS011;32646;50.958;6.258;2023-01-19T11:25:33;21.15;;;8.02;;
46897;SDS011;32646;50.958;6.258;2023-01-19T11:28:01;17.42;;;8.13;;
46897;SDS011;32646;50.958;6.258;2023-01-19T11:30:28;21.63;;;8.90;;
46897;SDS011;32646;50.958;6.258;2023-01-19T11:32:55;14.38;;;6.85;;
46897;SDS011;32646;50.958;6.258;2023-01-19T11:35:56;17.10;;;8.82;;
46897;SDS011;32646;50.958;6.258;2023-01-19T11:38:19;15.43;;;7.70;;
46897;SDS011;32646;50.958;6.258;2023-01-19T11:40:56;14.75;;;7.53;;
46897;SDS011;32646;50.958;6.258;2023-01-19T11:43:27;19.73;;;8.73;;
46897;SDS011;32646;50.958;6.258;2023-01-19T11:46:13;16.98;;;8.40;;
46897;SDS011;32646;50.958;6.258;2023-01-19T11:48:42;22.27;;;7.90;;
46897;SDS011;32646;50.958;6.258;2023-01-19T11:51:17;20.58;;;8.30;;
46897;SDS011;32646;50.958;6.258;2023-01-19T11:53:48;16.63;;;6.85;;
46897;SDS011;32646;50.958;6.258;2023-01-19T11:56:17;20.80;;;8.35;;
46897;SDS011;32646;50.958;6.258;2023-01-19T11:58:48;22.92;;;9.45;;
46897;SDS011;32646;50.958;6.258;2023-01-19T12:04:00;21.05;;;8.75;;
46897;SDS011;32646;50.958;6.258;2023-01-19T12:06:32;22.25;;;8.60;;
46897;SDS011;32646;50.958;6.258;2023-01-19T12:09:02;21.50;;;9.13;;
46897;SDS011;32646;50.958;6.258;2023-01-19T12:11:43;14.25;;;7.53;;
46897;SDS011;32646;50.958;6.258;2023-01-19T12:14:18;20.55;;;8.48;;
46897;SDS011;32646;50.958;6.258;2023-01-19T12:17:11;23.40;;;8.52;;
46897;SDS011;32646;50.958;6.258;2023-01-19T12:19:48;16.13;;;7.93;;
46897;SDS011;32646;50.958;6.258;2023-01-19T12:22:20;10.38;;;6.30;;
46897;SDS011;32646;50.958;6.258;2023-01-19T12:24:51;15.05;;;6.88;;
46897;SDS011;32646;50.958;6.258;2023-01-19T12:30:15;12.73;;;7.30;;
46897;SDS011;32646;50.958;6.258;2023-01-19T12:32:42;13.20;;;6.38;;
46897;SDS011;32646;50.958;6.258;2023-01-19T12:35:56;20.30;;;7.95;;
46897;SDS011;32646;50.958;6.258;2023-01-19T12:41:25;15.82;;;8.00;;
46897;SDS011;32646;50.958;6.258;2023-01-19T12:52:10;15.93;;;7.15;;
46897;SDS011;32646;50.958;6.258;2023-01-19T12:55:05;15.68;;;7.63;;
46897;SDS011;32646;50.958;6.258;2023-01-19T12:57:45;15.32;;;7.70;;
46897;SDS011;32646;50.958;6.258;2023-01-19T13:03:01;13.70;;;6.72;;
46897;SDS011;32646;50.958;6.258;2023-01-19T13:05:52;15.90;;;7.85;;
46897;SDS011;32646;50.958;6.258;2023-01-19T13:08:20;16.92;;;8.63;;
46897;SDS011;32646;50.958;6.258;2023-01-19T13:13:20;19.02;;;8.80;;
46897;SDS011;32646;50.958;6.258;2023-01-19T13:15:49;18.98;;;7.90;;
46897;SDS011;32646;50.958;6.258;2023-01-19T13:18:17;12.77;;;6.30;;
46897;SDS011;32646;50.958;6.258;2023-01-19T13:21:00;20.58;;;8.80;;
46897;SDS011;32646;50.958;6.258;2023-01-19T13:26:15;16.58;;;8.32;;
46897;SDS011;32646;50.958;6.258;2023-01-19T13:28:51;22.05;;;7.95;;
46897;SDS011;32646;50.958;6.258;2023-01-19T13:31:37;23.00;;;9.27;;
46897;SDS011;32646;50.958;6.258;2023-01-19T13:34:11;18.08;;;9.70;;
46897;SDS011;32646;50.958;6.258;2023-01-19T13:36:46;19.80;;;8.68;;
46897;SDS011;32646;50.958;6.258;2023-01-19T13:41:53;19.63;;;9.38;;
46897;SDS011;32646;50.958;6.258;2023-01-19T13:44:23;17.70;;;8.30;;
46897;SDS011;32646;50.958;6.258;2023-01-19T13:46:51;18.50;;;9.50;;
46897;SDS011;32646;50.958;6.258;2023-01-19T13:49:20;18.42;;;7.80;;
46897;SDS011;32646;50.958;6.258;2023-01-19T13:54:30;21.45;;;8.98;;
46897;SDS011;32646;50.958;6.258;2023-01-19T13:56:57;20.00;;;8.55;;
46897;SDS011;32646;50.958;6.258;2023-01-19T13:59:23;21.15;;;9.30;;
46897;SDS011;32646;50.958;6.258;2023-01-19T14:01:51;15.77;;;8.00;;
46897;SDS011;32646;50.958;6.258;2023-01-19T14:06:51;14.57;;;6.53;;
46897;SDS011;32646;50.958;6.258;2023-01-19T14:09:18;14.15;;;7.25;;
46897;SDS011;32646;50.958;6.258;2023-01-19T14:11:46;12.27;;;6.68;;
46897;SDS011;32646;50.958;6.258;2023-01-19T14:14:29;16.95;;;6.10;;
46897;SDS011;32646;50.958;6.258;2023-01-19T14:16:56;18.13;;;7.95;;
46897;SDS011;32646;50.958;6.258;2023-01-19T14:19:23;21.70;;;8.07;;
46897;SDS011;32646;50.958;6.258;2023-01-19T14:22:03;14.18;;;7.80;;
46897;SDS011;32646;50.958;6.258;2023-01-19T14:24:29;14.82;;;6.70;;
46897;SDS011;32646;50.958;6.258;2023-01-19T14:27:06;13.27;;;6.55;;
46897;SDS011;32646;50.958;6.258;2023-01-19T14:29:35;13.93;;;6.25;;
46897;SDS011;32646;50.958;6.258;2023-01-19T14:34:36;12.60;;;6.35;;
46897;SDS011;32646;50.958;6.258;2023-01-19T14:37:13;19.13;;;8.90;;
46897;SDS011;32646;50.958;6.258;2023-01-19T14:39:49;19.73;;;9.57;;
46897;SDS011;32646;50.958;6.258;2023-01-19T14:42:29;20.08;;;10.82;;
46897;SDS011;32646;50.958;6.258;2023-01-19T14:45:03;22.45;;;9.77;;
46897;SDS011;32646;50.958;6.258;2023-01-19T14:47:51;17.48;;;8.43;;
46897;SDS011;32646;50.958;6.258;2023-01-19T14:52:57;16.55;;;7.22;;
46897;SDS011;32646;50.958;6.258;2023-01-19T14:55:42;20.10;;;8.80;;
46897;SDS011;32646;50.958;6.258;2023-01-19T14:58:16;14.57;;;6.63;;
46897;SDS011;32646;50.958;6.258;2023-01-19T15:00:45;13.93;;;7.10;;
46897;SDS011;32646;50.958;6.258;2023-01-19T15:03:12;15.00;;;7.65;;
46897;SDS011;32646;50.958;6.258;2023-01-19T15:05:41;18.27;;;9.23;;
46897;SDS011;32646;50.958;6.258;2023-01-19T15:08:19;15.77;;;9.73;;
46897;SDS011;32646;50.958;6.258;2023-01-19T15:10:56;18.38;;;8.05;;
46897;SDS011;32646;50.958;6.258;2023-01-19T15:13:24;18.05;;;9.32;;
46897;SDS011;32646;50.958;6.258;2023-01-19T15:15:51;15.00;;;7.15;;
46897;SDS011;32646;50.958;6.258;2023-01-19T15:18:20;14.60;;;7.28;;
46897;SDS011;32646;50.958;6.258;2023-01-19T15:20:49;13.52;;;6.85;;
46897;SDS011;32646;50.958;6.258;2023-01-19T15:23:16;11.60;;;6.28;;
46897;SDS011;32646;50.958;6.258;2023-01-19T15:25:42;13.73;;;7.13;;
46897;SDS011;32646;50.958;6.258;2023-01-19T15:28:13;10.20;;;6.43;;
46897;SDS011;32646;50.958;6.258;2023-01-19T15:30:42;16.48;;;7.05;;
46897;SDS011;32646;50.958;6.258;2023-01-19T15:33:11;11.63;;;5.78;;
46897;SDS011;32646;50.958;6.258;2023-01-19T15:35:50;16.33;;;7.80;;
46897;SDS011;32646;50.958;6.258;2023-01-19T15:38:18;14.07;;;7.57;;
46897;SDS011;32646;50.958;6.258;2023-01-19T15:40:46;18.15;;;7.18;;
46897;SDS011;32646;50.958;6.258;2023-01-19T15:43:16;12.70;;;6.45;;
46897;SDS011;32646;50.958;6.258;2023-01-19T15:45:59;14.10;;;5.95;;
46897;SDS011;32646;50.958;6.258;2023-01-19T15:48:26;14.50;;;5.82;;
46897;SDS011;32646;50.958;6.258;2023-01-19T15:50:52;10.15;;;5.38;;
46897;SDS011;32646;50.958;6.258;2023-01-19T15:53:20;10.70;;;5.30;;
46897;SDS011;32646;50.958;6.258;2023-01-19T15:55:48;13.55;;;5.78;;
46897;SDS011;32646;50.958;6.258;2023-01-19T15:58:16;10.52;;;5.57;;
46897;SDS011;32646;50.958;6.258;2023-01-19T16:00:43;13.50;;;4.75;;
46897;SDS011;32646;50.958;6.258;2023-01-19T16:03:09;10.82;;;3.67;;
46897;SDS011;32646;50.958;6.258;2023-01-19T16:05:36;14.13;;;4.80;;
46897;SDS011;32646;50.958;6.258;2023-01-19T16:08:09;8.43;;;4.68;;
46897;SDS011;32646;50.958;6.258;2023-01-19T16:10:36;12.68;;;5.70;;
46897;SDS011;32646;50.958;6.258;2023-01-19T16:13:03;9.13;;;4.80;;
46897;SDS011;32646;50.958;6.258;2023-01-19T16:15:29;13.98;;;5.22;;
46897;SDS011;32646;50.958;6.258;2023-01-19T16:17:56;12.68;;;6.25;;
46897;SDS011;32646;50.958;6.258;2023-01-19T16:20:22;13.43;;;5.78;;
46897;SDS011;32646;50.958;6.258;2023-01-19T16:22:49;10.52;;;5.18;;
46897;SDS011;32646;50.958;6.258;2023-01-19T16:25:15;10.38;;;4.85;;